LOW weather

Louisa County Airport/Freeman Field
Louisa, Virginia, United States

Public forecast

Using degrees Fahrenheit for public forecast. Weather courtesy of forecast.io.

METAR (pilot weather report)

Retrieved 2019/07/17 03:35 UTC (22 minutes ago):

KLKU 170335Z AUTO 15004KT 5SM HZ CLR 25/23 A3010 RMK AO2 T02540226

TAF (pilot weather forecast)

Forecast is more than 12 hours old.

Closest forecast is Charlottesville Albemarle Airport, 24.1 nm (44.6 km) WNW. Retrieved 2019/07/16 00:22 UTC (1 day ago):

TAF KCHO 162320Z 1700/1724 VRB03KT P6SM SCT050 BKN130 FM171600 21006KT P6SM SCT050 SCT130 FM172100 21010KT P6SM VCTS BKN050CB BKN130